Time;durP1;ratioP1;P1;durP2;ratioP2;P2;SDS_P1;SDS_P2;PMS_P1;PMS_P2;Temp;Humidity;BMP_temperature;BMP_pressure;BME280_temperature;BME280_humidity;BME280_pressure;Samples;Min_cycle;Max_cycle;Signal;HPM_P1;HPM_P2
2021/12/11 00:02:17;;;;;;;11.05;5.97;;;;;;;;;;5031861;28;20108;-35
2021/12/11 00:04:43;;;;;;;8.80;4.45;;;;;;;;;;5032040;28;20057;-36
2021/12/11 00:07:10;;;;;;;9.07;4.20;;;;;;;;;;5031772;28;20041;-36
2021/12/11 00:09:46;;;;;;;6.70;4.55;;;;;;;;;;5031804;28;20033;-35
2021/12/11 00:12:12;;;;;;;9.48;4.75;;;;;;;;;;5032110;28;20033;-35
2021/12/11 00:14:39;;;;;;;8.98;5.25;;;;;;;;;;5032142;28;20040;-35
2021/12/11 00:17:05;;;;;;;11.07;4.05;;;;;;;;;;5031741;28;20025;-36
2021/12/11 00:19:33;;;;;;;8.95;4.50;;;;;;;;;;5031791;28;20025;-36
2021/12/11 00:22:08;;;;;;;8.93;4.68;;;;;;;;;;5032046;28;20120;-36
2021/12/11 00:24:35;;;;;;;8.23;3.88;;;;;;;;;;5031743;28;20038;-36
2021/12/11 00:27:10;;;;;;;11.25;4.57;;;;;;;;;;5031774;28;20060;-36
2021/12/11 00:29:37;;;;;;;6.10;4.18;;;;;;;;;;5031923;28;20030;-36
2021/12/11 00:32:05;;;;;;;10.25;4.93;;;;;;;;;;5032522;28;20025;-36
2021/12/11 00:34:31;;;;;;;6.38;4.95;;;;;;;;;;5035585;28;20132;-35
2021/12/11 00:36:59;;;;;;;8.65;4.60;;;;;;;;;;5035970;28;20125;-35
2021/12/11 00:39:25;;;;;;;8.60;4.40;;;;;;;;;;5035851;28;20037;-35
2021/12/11 00:41:55;;;;;;;9.73;4.88;;;;;;;;;;5035603;28;20013;-36
2021/12/11 00:44:39;;;;;;;9.30;5.53;;;;;;;;;;5035735;28;20059;-36
2021/12/11 00:47:09;;;;;;;13.75;4.05;;;;;;;;;;5035611;28;20041;-36
2021/12/11 00:49:35;;;;;;;7.75;4.57;;;;;;;;;;5035438;28;20037;-35
2021/12/11 00:52:00;;;;;;;7.05;5.10;;;;;;;;;;5035545;28;20029;-36
2021/12/11 00:54:26;;;;;;;6.90;4.22;;;;;;;;;;5035388;28;20397;-35
2021/12/11 00:56:51;;;;;;;6.18;3.88;;;;;;;;;;5035608;28;20400;-36
2021/12/11 00:59:19;;;;;;;7.15;3.42;;;;;;;;;;5035424;28;20383;-35
2021/12/11 01:01:46;;;;;;;9.98;5.20;;;;;;;;;;5035577;28;20029;-35
2021/12/11 01:04:17;;;;;;;9.68;4.55;;;;;;;;;;5035099;28;20104;-36
2021/12/11 01:06:52;;;;;;;10.50;4.82;;;;;;;;;;5035024;28;20500;-35
2021/12/11 01:09:19;;;;;;;6.78;4.75;;;;;;;;;;5035054;28;20033;-35
2021/12/11 01:11:50;;;;;;;8.07;3.85;;;;;;;;;;5035066;28;20443;-36
2021/12/11 01:14:42;;;;;;;6.70;4.00;;;;;;;;;;5035136;28;20112;-36
2021/12/11 01:17:20;;;;;;;10.32;4.03;;;;;;;;;;5034887;28;20494;-36
2021/12/11 01:19:49;;;;;;;6.75;4.18;;;;;;;;;;5034797;28;20057;-36
2021/12/11 01:22:33;;;;;;;10.20;3.58;;;;;;;;;;5034743;28;20143;-36
2021/12/11 01:25:01;;;;;;;9.57;3.70;;;;;;;;;;5035026;28;20092;-35
2021/12/11 01:27:26;;;;;;;5.53;3.90;;;;;;;;;;5034889;28;20033;-36
2021/12/11 01:29:56;;;;;;;6.25;3.60;;;;;;;;;;5034798;28;20387;-36
2021/12/11 01:32:23;;;;;;;8.98;4.38;;;;;;;;;;5034584;28;20017;-35
2021/12/11 01:34:48;;;;;;;7.55;4.03;;;;;;;;;;5034472;28;20042;-35
2021/12/11 01:37:15;;;;;;;7.38;3.75;;;;;;;;;;5034685;28;20384;-36
2021/12/11 01:39:41;;;;;;;6.07;3.60;;;;;;;;;;5034501;28;20026;-35
2021/12/11 01:42:08;;;;;;;7.32;2.92;;;;;;;;;;5034700;28;20021;-35
2021/12/11 01:44:36;;;;;;;9.07;4.13;;;;;;;;;;5034330;28;20487;-36
2021/12/11 01:47:12;;;;;;;7.13;3.95;;;;;;;;;;5034556;28;20427;-36
2021/12/11 01:49:39;;;;;;;9.95;4.55;;;;;;;;;;5034561;28;20080;-35
2021/12/11 01:52:14;;;;;;;7.63;4.50;;;;;;;;;;5034230;28;20018;-36
2021/12/11 01:54:42;;;;;;;7.78;4.38;;;;;;;;;;5034231;28;20045;-35
2021/12/11 01:57:10;;;;;;;5.70;3.33;;;;;;;;;;5034180;28;20017;-36
2021/12/11 01:59:38;;;;;;;4.30;2.25;;;;;;;;;;5034088;28;20072;-35
2021/12/11 02:02:09;;;;;;;7.07;3.45;;;;;;;;;;5034004;28;20539;-35
2021/12/11 02:04:41;;;;;;;8.57;4.85;;;;;;;;;;5034286;28;20079;-35
2021/12/11 02:07:09;;;;;;;6.90;3.78;;;;;;;;;;5033932;28;20042;-36
2021/12/11 02:09:36;;;;;;;3.85;2.53;;;;;;;;;;5033923;28;20087;-36
2021/12/11 02:12:10;;;;;;;4.70;2.83;;;;;;;;;;5033836;28;20033;-36
2021/12/11 02:14:41;;;;;;;5.30;2.97;;;;;;;;;;5033851;28;20029;-35
2021/12/11 02:17:14;;;;;;;10.20;4.32;;;;;;;;;;5034020;28;20030;-36
2021/12/11 02:19:42;;;;;;;9.65;4.38;;;;;;;;;;5033713;28;20091;-35
2021/12/11 02:22:10;;;;;;;6.55;2.72;;;;;;;;;;5034045;28;20055;-35
2021/12/11 02:24:40;;;;;;;6.07;3.17;;;;;;;;;;5034020;28;20172;-35
2021/12/11 02:27:11;;;;;;;5.43;3.33;;;;;;;;;;5033550;28;20061;-36
2021/12/11 02:29:39;;;;;;;3.28;2.70;;;;;;;;;;5033660;28;20544;-36
2021/12/11 02:32:05;;;;;;;4.82;3.33;;;;;;;;;;5033395;28;20464;-36
2021/12/11 02:34:32;;;;;;;6.78;3.83;;;;;;;;;;5033528;28;20136;-36
2021/12/11 02:37:04;;;;;;;1.58;1.30;;;;;;;;;;5033782;28;20391;-36
2021/12/11 02:39:38;;;;;;;2.13;1.45;;;;;;;;;;5033355;28;20390;-35
2021/12/11 02:42:07;;;;;;;5.45;3.13;;;;;;;;;;5033686;28;20207;-36
2021/12/11 02:44:38;;;;;;;6.93;4.63;;;;;;;;;;5033225;28;20071;-36
2021/12/11 02:47:13;;;;;;;9.93;3.47;;;;;;;;;;5033138;28;20071;-36
2021/12/11 02:49:42;;;;;;;7.85;2.67;;;;;;;;;;5033525;28;20062;-35
2021/12/11 02:52:20;;;;;;;4.57;2.58;;;;;;;;;;5033352;28;20029;-35
2021/12/11 02:54:48;;;;;;;6.75;3.22;;;;;;;;;;5032906;28;20062;-36
2021/12/11 02:57:17;;;;;;;5.03;2.40;;;;;;;;;;5032979;28;20025;-35
2021/12/11 02:59:44;;;;;;;5.05;2.90;;;;;;;;;;5033177;28;20040;-36
2021/12/11 03:02:17;;;;;;;7.75;3.75;;;;;;;;;;5031685;28;20391;-36
2021/12/11 03:04:55;;;;;;;4.93;2.95;;;;;;;;;;5033310;28;20452;-36
2021/12/11 03:07:25;;;;;;;6.22;2.85;;;;;;;;;;5032719;28;20587;-35
2021/12/11 03:09:53;;;;;;;5.93;2.42;;;;;;;;;;5032793;28;20538;-35
2021/12/11 03:12:19;;;;;;;5.93;3.05;;;;;;;;;;5032759;28;20036;-35
2021/12/11 03:14:45;;;;;;;13.48;3.60;;;;;;;;;;5032709;28;20091;-36
2021/12/11 03:17:11;;;;;;;8.20;3.13;;;;;;;;;;5032633;28;20029;-36
2021/12/11 03:19:39;;;;;;;5.25;3.13;;;;;;;;;;5032657;28;20078;-36
2021/12/11 03:22:07;;;;;;;5.80;2.50;;;;;;;;;;5032758;28;20100;-35
2021/12/11 03:24:35;;;;;;;4.68;2.45;;;;;;;;;;5032903;28;20017;-36
2021/12/11 03:27:01;;;;;;;5.40;2.65;;;;;;;;;;5032435;28;20039;-36
2021/12/11 03:29:27;;;;;;;3.50;1.73;;;;;;;;;;5032702;28;20113;-36
2021/12/11 03:31:53;;;;;;;3.03;2.42;;;;;;;;;;5032511;28;20056;-36
2021/12/11 03:34:20;;;;;;;5.85;2.60;;;;;;;;;;5032298;28;20149;-36
2021/12/11 03:36:46;;;;;;;4.20;2.67;;;;;;;;;;5032674;28;20075;-36
2021/12/11 03:39:16;;;;;;;4.80;2.38;;;;;;;;;;5032261;28;20026;-35
2021/12/11 03:41:43;;;;;;;1.67;0.95;;;;;;;;;;5032574;28;20075;-36
2021/12/11 03:44:09;;;;;;;4.63;3.20;;;;;;;;;;5032500;28;20041;-36
2021/12/11 03:46:35;;;;;;;5.38;2.95;;;;;;;;;;5032114;28;20061;-35
2021/12/11 03:49:02;;;;;;;6.38;2.60;;;;;;;;;;5032358;28;20056;-36
2021/12/11 03:51:30;;;;;;;5.90;2.00;;;;;;;;;;5032173;28;20068;-35
2021/12/11 03:53:57;;;;;;;2.67;2.38;;;;;;;;;;5032103;28;20029;-35
2021/12/11 03:56:22;;;;;;;3.65;2.22;;;;;;;;;;5032252;28;20018;-36
2021/12/11 03:58:49;;;;;;;5.05;2.30;;;;;;;;;;5031954;28;20551;-36
2021/12/11 04:01:35;;;;;;;5.50;2.50;;;;;;;;;;5032277;28;20026;-36
2021/12/11 04:04:02;;;;;;;3.72;1.83;;;;;;;;;;5031642;28;20087;-36
2021/12/11 04:06:28;;;;;;;2.83;1.80;;;;;;;;;;5031490;28;20029;-36
2021/12/11 04:08:54;;;;;;;4.47;2.83;;;;;;;;;;5032153;28;20529;-36
2021/12/11 04:11:24;;;;;;;3.58;1.92;;;;;;;;;;5031829;28;20029;-36
2021/12/11 04:13:52;;;;;;;3.35;2.28;;;;;;;;;;5032193;28;20057;-36
2021/12/11 04:16:18;;;;;;;4.13;2.92;;;;;;;;;;5031840;28;20017;-39
2021/12/11 04:18:44;;;;;;;2.13;1.52;;;;;;;;;;5031802;28;20030;-36
2021/12/11 04:21:09;;;;;;;9.35;2.85;;;;;;;;;;5031780;28;20088;-36
2021/12/11 04:23:35;;;;;;;6.78;2.72;;;;;;;;;;5031787;28;20030;-36
2021/12/11 04:26:01;;;;;;;3.75;2.30;;;;;;;;;;5031583;28;20041;-36
2021/12/11 04:28:30;;;;;;;5.60;3.08;;;;;;;;;;5031821;28;20074;-45
2021/12/11 04:31:02;;;;;;;4.38;2.65;;;;;;;;;;5031801;28;20052;-35
2021/12/11 04:33:28;;;;;;;4.47;2.70;;;;;;;;;;5031486;28;20030;-35
2021/12/11 04:35:53;;;;;;;3.13;1.90;;;;;;;;;;5031650;28;20108;-36
2021/12/11 04:38:19;;;;;;;6.85;3.38;;;;;;;;;;5031897;28;20136;-36
2021/12/11 04:40:49;;;;;;;3.67;2.30;;;;;;;;;;5031649;28;20410;-36
2021/12/11 04:43:18;;;;;;;3.47;1.88;;;;;;;;;;5031552;28;20030;-36
2021/12/11 04:45:49;;;;;;;5.53;2.20;;;;;;;;;;5031525;28;20018;-36
2021/12/11 04:48:50;;;;;;;4.35;2.08;;;;;;;;;;5031766;28;20071;-36
2021/12/11 04:51:27;;;;;;;1.63;1.10;;;;;;;;;;5031831;28;20021;-36
2021/12/11 05:04:52;;;;;;;2.53;1.38;;;;;;;;;;5030175;28;20095;-36
2021/12/11 05:09:56;;;;;;;3.22;1.92;;;;;;;;;;5031350;28;20026;-36
2021/12/11 05:14:51;;;;;;;1.77;1.45;;;;;;;;;;5031290;28;20476;-35
2021/12/11 05:17:16;;;;;;;2.00;1.10;;;;;;;;;;5031316;28;20040;-36
2021/12/11 05:19:43;;;;;;;2.22;1.67;;;;;;;;;;5034614;28;20017;-36
2021/12/11 05:22:10;;;;;;;2.05;1.70;;;;;;;;;;5035117;28;20033;-36
2021/12/11 05:24:37;;;;;;;1.85;1.38;;;;;;;;;;5035179;28;20049;-36
2021/12/11 05:27:03;;;;;;;1.70;1.23;;;;;;;;;;5034733;28;20167;-36
2021/12/11 05:29:29;;;;;;;6.13;1.50;;;;;;;;;;5035016;28;20079;-35
2021/12/11 05:31:55;;;;;;;3.60;2.00;;;;;;;;;;5035043;28;20061;-36
2021/12/11 05:34:21;;;;;;;1.65;1.25;;;;;;;;;;5034439;28;20107;-36
2021/12/11 05:36:47;;;;;;;4.88;1.52;;;;;;;;;;5034637;28;20115;-36
2021/12/11 05:39:14;;;;;;;1.55;0.82;;;;;;;;;;5034751;28;20052;-36
2021/12/11 05:41:40;;;;;;;2.45;1.52;;;;;;;;;;5034546;28;20485;-36
2021/12/11 05:44:06;;;;;;;1.95;1.20;;;;;;;;;;5034407;28;20112;-36
2021/12/11 05:46:33;;;;;;;1.17;0.80;;;;;;;;;;5034372;28;20041;-36
2021/12/11 05:48:58;;;;;;;0.90;0.90;;;;;;;;;;5034683;28;20021;-36
2021/12/11 05:51:24;;;;;;;1.70;0.98;;;;;;;;;;5034517;28;20044;-35
2021/12/11 05:53:53;;;;;;;2.08;1.38;;;;;;;;;;5034618;28;20022;-36
2021/12/11 05:56:20;;;;;;;3.10;1.23;;;;;;;;;;5034573;28;20044;-35
2021/12/11 05:58:56;;;;;;;0.82;0.82;;;;;;;;;;5034471;28;20064;-35
2021/12/11 06:01:27;;;;;;;3.15;1.58;;;;;;;;;;5034194;28;20033;-35
2021/12/11 06:03:52;;;;;;;1.10;1.00;;;;;;;;;;5034131;28;20464;-36
2021/12/11 06:06:18;;;;;;;0.88;0.88;;;;;;;;;;5034188;28;20040;-35
2021/12/11 06:08:44;;;;;;;1.55;0.95;;;;;;;;;;5034358;28;20094;-36
2021/12/11 06:11:10;;;;;;;3.53;1.42;;;;;;;;;;5034014;28;20357;-35
2021/12/11 06:13:36;;;;;;;1.75;1.15;;;;;;;;;;5032678;28;20037;-35
2021/12/11 06:16:03;;;;;;;3.17;1.05;;;;;;;;;;5034273;28;20060;-36
2021/12/11 06:18:29;;;;;;;1.67;1.58;;;;;;;;;;5033777;28;20043;-36
2021/12/11 06:20:55;;;;;;;1.52;1.38;;;;;;;;;;5033871;28;20024;-35
2021/12/11 06:23:22;;;;;;;2.42;1.15;;;;;;;;;;5033731;28;20087;-36
2021/12/11 06:25:48;;;;;;;1.10;1.00;;;;;;;;;;5033645;28;20013;-36
2021/12/11 06:28:14;;;;;;;2.22;0.70;;;;;;;;;;5033897;28;20032;-35
2021/12/11 06:30:40;;;;;;;1.27;0.95;;;;;;;;;;5032814;28;20029;-36
2021/12/11 06:33:06;;;;;;;1.17;0.93;;;;;;;;;;5033581;28;20096;-36
2021/12/11 06:35:40;;;;;;;1.23;1.13;;;;;;;;;;5033240;28;20161;-36
2021/12/11 06:38:07;;;;;;;2.47;1.15;;;;;;;;;;5033448;28;20022;-36
2021/12/11 06:40:33;;;;;;;1.27;0.80;;;;;;;;;;5032077;28;20021;-35
2021/12/11 06:42:59;;;;;;;1.45;1.30;;;;;;;;;;5033440;28;20053;-36
2021/12/11 06:45:25;;;;;;;1.23;0.98;;;;;;;;;;5033605;28;20107;-35
2021/12/11 06:47:51;;;;;;;0.65;0.65;;;;;;;;;;5033123;28;20041;-36
2021/12/11 06:50:18;;;;;;;2.15;0.98;;;;;;;;;;5033463;28;20022;-35
2021/12/11 06:52:43;;;;;;;0.90;0.90;;;;;;;;;;5033224;28;20034;-36
2021/12/11 06:55:10;;;;;;;2.05;1.02;;;;;;;;;;5033300;28;20026;-36
2021/12/11 06:57:36;;;;;;;1.25;0.77;;;;;;;;;;5033495;28;20475;-36
2021/12/11 07:00:02;;;;;;;1.00;0.70;;;;;;;;;;5033107;28;20079;-36
2021/12/11 07:02:28;;;;;;;1.13;0.65;;;;;;;;;;5032989;28;20476;-36
2021/12/11 07:04:55;;;;;;;2.08;1.20;;;;;;;;;;5033049;28;20028;-35
2021/12/11 07:07:24;;;;;;;0.32;0.32;;;;;;;;;;5032841;28;20048;-35
2021/12/11 07:09:51;;;;;;;2.88;1.17;;;;;;;;;;5032807;28;20037;-36
2021/12/11 07:12:16;;;;;;;2.13;1.17;;;;;;;;;;5032893;28;20391;-35
2021/12/11 07:14:42;;;;;;;3.03;0.90;;;;;;;;;;5032845;28;20104;-36
2021/12/11 07:17:07;;;;;;;1.13;0.82;;;;;;;;;;5032636;28;20087;-36
2021/12/11 07:19:33;;;;;;;1.23;0.82;;;;;;;;;;5032973;28;20109;-35
2021/12/11 07:21:59;;;;;;;1.10;1.00;;;;;;;;;;5032764;28;20034;-35
2021/12/11 07:24:30;;;;;;;2.42;1.10;;;;;;;;;;5032423;28;20029;-36
2021/12/11 07:26:57;;;;;;;1.92;1.27;;;;;;;;;;5032388;28;20048;-35
2021/12/11 07:29:23;;;;;;;1.30;1.20;;;;;;;;;;5032720;28;20021;-36
2021/12/11 07:31:50;;;;;;;2.92;1.13;;;;;;;;;;5032525;28;20040;-35
2021/12/11 07:34:19;;;;;;;1.15;0.90;;;;;;;;;;5032259;28;20084;-36
2021/12/11 07:36:45;;;;;;;0.57;0.43;;;;;;;;;;5032704;28;20041;-35
2021/12/11 07:39:13;;;;;;;4.45;1.65;;;;;;;;;;5032546;28;20040;-35
2021/12/11 07:41:38;;;;;;;1.65;1.17;;;;;;;;;;5032328;28;20029;-36
2021/12/11 07:44:04;;;;;;;1.67;1.13;;;;;;;;;;5032456;28;20025;-36
2021/12/11 07:46:30;;;;;;;2.50;1.73;;;;;;;;;;5032287;28;20042;-36
2021/12/11 07:48:57;;;;;;;4.25;1.45;;;;;;;;;;5032550;28;20017;-36
2021/12/11 07:51:24;;;;;;;4.75;1.73;;;;;;;;;;5032065;28;20037;-35
2021/12/11 07:53:50;;;;;;;1.35;1.20;;;;;;;;;;5032503;28;20382;-35
2021/12/11 07:56:20;;;;;;;1.33;0.75;;;;;;;;;;5030854;28;20423;-36
2021/12/11 07:58:46;;;;;;;2.70;1.45;;;;;;;;;;5032094;28;20022;-36
2021/12/11 08:01:12;;;;;;;1.83;1.33;;;;;;;;;;5031069;28;20040;-36
2021/12/11 08:03:37;;;;;;;3.47;1.52;;;;;;;;;;5032034;28;20033;-35
2021/12/11 08:06:04;;;;;;;0.57;0.57;;;;;;;;;;5031972;28;20072;-35
2021/12/11 08:08:29;;;;;;;2.58;1.10;;;;;;;;;;5032252;28;20394;-36
2021/12/11 08:10:56;;;;;;;2.67;1.40;;;;;;;;;;5031993;28;20017;-36
2021/12/11 08:13:22;;;;;;;2.20;1.30;;;;;;;;;;5031801;28;20030;-36
2021/12/11 08:15:49;;;;;;;3.25;1.75;;;;;;;;;;5031916;28;20092;-35
2021/12/11 08:18:16;;;;;;;1.15;1.02;;;;;;;;;;5032022;28;20391;-36
2021/12/11 08:20:45;;;;;;;2.63;2.08;;;;;;;;;;5031774;28;20018;-36
2021/12/11 08:23:11;;;;;;;1.88;1.17;;;;;;;;;;5031717;28;20050;-35
2021/12/11 08:25:37;;;;;;;1.38;1.27;;;;;;;;;;5032143;28;20013;-35
2021/12/11 08:28:04;;;;;;;3.47;2.17;;;;;;;;;;5031870;28;20080;-36
2021/12/11 08:30:31;;;;;;;3.13;1.42;;;;;;;;;;5014098;28;20025;-35
2021/12/11 08:32:57;;;;;;;4.25;1.25;;;;;;;;;;5031695;28;20045;-36
2021/12/11 08:35:22;;;;;;;4.03;1.95;;;;;;;;;;5031436;28;20041;-36
2021/12/11 08:37:49;;;;;;;3.10;1.73;;;;;;;;;;5031735;28;20030;-36
2021/12/11 08:40:17;;;;;;;2.17;1.67;;;;;;;;;;5031532;28;20025;-36
2021/12/11 08:42:43;;;;;;;3.67;1.48;;;;;;;;;;5030292;28;20484;-35
2021/12/11 08:45:13;;;;;;;3.22;1.42;;;;;;;;;;5031557;28;20464;-36
2021/12/11 08:47:41;;;;;;;3.80;1.80;;;;;;;;;;5042578;28;20037;-35
2021/12/11 08:50:09;;;;;;;3.42;1.40;;;;;;;;;;5051316;28;20500;-36
2021/12/11 08:52:37;;;;;;;4.05;1.75;;;;;;;;;;5051807;28;20075;-35
2021/12/11 08:55:04;;;;;;;3.85;1.35;;;;;;;;;;5055375;28;20021;-36
2021/12/11 08:57:33;;;;;;;4.35;2.78;;;;;;;;;;5055303;28;20040;-36
2021/12/11 09:00:04;;;;;;;2.88;1.88;;;;;;;;;;5055260;28;20460;-36
2021/12/11 09:02:39;;;;;;;1.98;1.55;;;;;;;;;;5055042;28;20043;-36
2021/12/11 09:05:08;;;;;;;2.65;1.83;;;;;;;;;;5055423;28;20438;-36
2021/12/11 09:07:33;;;;;;;2.35;1.67;;;;;;;;;;5055340;28;20076;-36
2021/12/11 09:10:11;;;;;;;6.90;3.08;;;;;;;;;;5055303;28;20025;-35
2021/12/11 09:12:40;;;;;;;8.13;2.65;;;;;;;;;;5055087;28;20128;-36
2021/12/11 09:15:15;;;;;;;4.03;2.00;;;;;;;;;;5054929;28;20071;-36
2021/12/11 09:17:43;;;;;;;5.30;2.38;;;;;;;;;;5054878;28;20078;-36
2021/12/11 09:20:15;;;;;;;2.35;1.95;;;;;;;;;;5055072;28;20021;-36
2021/12/11 09:22:50;;;;;;;3.33;1.67;;;;;;;;;;5054837;28;20032;-35
2021/12/11 09:25:18;;;;;;;3.03;1.92;;;;;;;;;;5054669;28;20056;-36
2021/12/11 09:27:46;;;;;;;3.20;2.33;;;;;;;;;;5054989;28;20119;-35
2021/12/11 09:30:16;;;;;;;2.45;1.98;;;;;;;;;;5054670;28;20075;-36
2021/12/11 09:32:44;;;;;;;3.35;1.80;;;;;;;;;;5054670;28;20031;-35
2021/12/11 09:35:12;;;;;;;3.67;1.85;;;;;;;;;;5054390;28;20045;-35
2021/12/11 09:37:38;;;;;;;2.25;1.75;;;;;;;;;;5054884;28;20029;-35
2021/12/11 09:40:10;;;;;;;6.72;2.60;;;;;;;;;;5054772;28;20025;-36
2021/12/11 09:42:36;;;;;;;3.03;2.50;;;;;;;;;;5054301;28;20314;-35
2021/12/11 09:45:07;;;;;;;5.93;2.20;;;;;;;;;;5054180;28;20049;-35
2021/12/11 09:47:39;;;;;;;2.27;1.67;;;;;;;;;;5053780;28;20060;-36
2021/12/11 09:50:09;;;;;;;4.00;2.40;;;;;;;;;;5053875;28;20748;-36
2021/12/11 09:52:36;;;;;;;3.13;1.80;;;;;;;;;;5053823;28;20099;-35
2021/12/11 09:55:05;;;;;;;4.90;2.22;;;;;;;;;;5054003;28;20421;-36
2021/12/11 09:57:32;;;;;;;2.75;1.95;;;;;;;;;;5054042;28;20032;-36
2021/12/11 09:59:59;;;;;;;2.30;1.85;;;;;;;;;;5053672;28;20047;-37
2021/12/11 10:02:29;;;;;;;4.75;2.45;;;;;;;;;;5053622;28;20052;-36
2021/12/11 10:05:00;;;;;;;5.13;1.92;;;;;;;;;;5052317;28;20513;-35
2021/12/11 10:09:57;;;;;;;4.65;1.40;;;;;;;;;;5053397;28;20486;-35
2021/12/11 10:12:25;;;;;;;4.97;2.33;;;;;;;;;;5053440;28;20028;-36
2021/12/11 10:14:59;;;;;;;4.05;2.33;;;;;;;;;;5053358;28;20670;-36
2021/12/11 10:17:29;;;;;;;3.75;1.52;;;;;;;;;;5053547;28;20036;-36
2021/12/11 10:19:56;;;;;;;5.95;1.95;;;;;;;;;;5053305;28;20036;-36
2021/12/11 10:22:34;;;;;;;2.72;1.30;;;;;;;;;;5053161;28;20048;-36
2021/12/11 10:25:01;;;;;;;5.32;2.10;;;;;;;;;;5053487;28;20187;-36
2021/12/11 10:27:30;;;;;;;2.40;2.10;;;;;;;;;;5053216;28;20033;-35
2021/12/11 10:29:57;;;;;;;3.70;1.95;;;;;;;;;;5052988;28;20066;-36
2021/12/11 10:32:25;;;;;;;3.42;2.17;;;;;;;;;;5052950;28;20104;-36
2021/12/11 10:34:52;;;;;;;3.15;2.10;;;;;;;;;;5052902;28;20045;-36
2021/12/11 10:37:20;;;;;;;2.33;1.65;;;;;;;;;;5052926;28;20433;-35
2021/12/11 10:39:48;;;;;;;1.95;1.85;;;;;;;;;;5053156;28;20108;-36
2021/12/11 10:42:14;;;;;;;2.03;1.15;;;;;;;;;;5053067;28;20352;-36
2021/12/11 10:44:41;;;;;;;3.55;1.88;;;;;;;;;;5052797;28;20032;-36
2021/12/11 10:47:17;;;;;;;3.08;1.30;;;;;;;;;;5052940;28;20520;-36
2021/12/11 10:49:44;;;;;;;3.80;1.85;;;;;;;;;;5052778;28;20025;-36
2021/12/11 10:52:17;;;;;;;2.97;1.48;;;;;;;;;;5052636;28;20031;-37
2021/12/11 10:54:44;;;;;;;5.40;1.95;;;;;;;;;;5052645;28;20041;-35
2021/12/11 10:57:10;;;;;;;4.57;1.45;;;;;;;;;;5052460;28;20032;-36
2021/12/11 10:59:38;;;;;;;5.35;2.65;;;;;;;;;;5052521;28;20024;-36
2021/12/11 11:02:09;;;;;;;3.20;2.03;;;;;;;;;;5052508;28;20033;-36
2021/12/11 11:04:41;;;;;;;3.00;2.00;;;;;;;;;;5052393;28;20025;-36
2021/12/11 11:07:07;;;;;;;2.47;2.03;;;;;;;;;;5052596;28;20119;-35
2021/12/11 11:09:33;;;;;;;1.27;0.93;;;;;;;;;;5052284;28;20535;-36
2021/12/11 11:12:00;;;;;;;6.45;2.22;;;;;;;;;;5052210;28;20037;-36
2021/12/11 11:14:26;;;;;;;5.55;1.98;;;;;;;;;;5052216;28;20025;-36
2021/12/11 11:16:53;;;;;;;4.93;2.03;;;;;;;;;;5051832;28;20035;-36
2021/12/11 11:19:24;;;;;;;4.40;2.00;;;;;;;;;;5052043;28;20017;-36
2021/12/11 11:21:56;;;;;;;3.17;1.20;;;;;;;;;;5052158;28;20475;-39
2021/12/11 11:24:22;;;;;;;2.08;1.42;;;;;;;;;;5052246;28;20474;-36
2021/12/11 11:26:48;;;;;;;2.72;1.55;;;;;;;;;;5052171;28;20036;-36
2021/12/11 11:29:17;;;;;;;2.08;1.85;;;;;;;;;;5051898;28;20089;-36
2021/12/11 11:31:43;;;;;;;4.15;1.95;;;;;;;;;;5051911;28;20541;-36
2021/12/11 11:34:11;;;;;;;2.40;1.52;;;;;;;;;;5051639;28;20399;-35
2021/12/11 11:36:37;;;;;;;2.90;1.75;;;;;;;;;;5051930;28;20487;-35
2021/12/11 11:39:05;;;;;;;1.70;1.20;;;;;;;;;;5050484;28;20583;-36
2021/12/11 11:41:37;;;;;;;2.47;1.30;;;;;;;;;;5051811;28;20497;-35
2021/12/11 11:44:04;;;;;;;2.15;1.63;;;;;;;;;;5052079;28;20455;-36
2021/12/11 11:46:29;;;;;;;3.92;1.60;;;;;;;;;;5051518;28;20068;-36
2021/12/11 11:48:57;;;;;;;2.85;2.10;;;;;;;;;;5051708;28;20474;-36
2021/12/11 11:51:26;;;;;;;5.47;1.45;;;;;;;;;;5051541;28;20025;-35
2021/12/11 11:53:52;;;;;;;1.65;1.55;;;;;;;;;;5051519;28;20372;-36
2021/12/11 11:56:20;;;;;;;7.00;2.03;;;;;;;;;;5051461;28;20079;-36
2021/12/11 11:58:46;;;;;;;3.50;2.45;;;;;;;;;;5051459;28;20032;-35
2021/12/11 12:01:17;;;;;;;3.95;1.85;;;;;;;;;;5051322;28;20021;-36
2021/12/11 12:03:43;;;;;;;3.00;1.98;;;;;;;;;;5051730;28;20091;-35
2021/12/11 12:06:11;;;;;;;2.95;1.60;;;;;;;;;;5051260;28;20019;-36
2021/12/11 12:08:38;;;;;;;5.63;1.85;;;;;;;;;;5051283;28;20036;-35
2021/12/11 12:11:05;;;;;;;2.70;2.25;;;;;;;;;;5051589;28;20041;-35
2021/12/11 12:13:32;;;;;;;2.10;1.38;;;;;;;;;;5051260;28;20037;-36
2021/12/11 12:16:05;;;;;;;2.15;1.50;;;;;;;;;;5051564;28;20017;-36
2021/12/11 12:18:31;;;;;;;3.33;1.42;;;;;;;;;;5051463;28;20040;-35
2021/12/11 12:20:57;;;;;;;2.35;1.45;;;;;;;;;;5051350;28;20013;-36
2021/12/11 12:23:24;;;;;;;4.15;2.30;;;;;;;;;;5051061;28;20035;-36
2021/12/11 12:25:51;;;;;;;2.38;2.05;;;;;;;;;;5051214;28;20063;-35
2021/12/11 12:28:18;;;;;;;7.43;2.35;;;;;;;;;;5052384;28;20048;-36
2021/12/11 12:30:47;;;;;;;3.85;1.73;;;;;;;;;;5055320;28;20070;-35
2021/12/11 12:33:14;;;;;;;5.47;1.70;;;;;;;;;;5055510;28;20032;-35
2021/12/11 12:35:40;;;;;;;2.58;1.65;;;;;;;;;;5055145;28;20437;-36
2021/12/11 12:38:07;;;;;;;1.67;1.20;;;;;;;;;;5055169;28;20112;-36
2021/12/11 12:40:35;;;;;;;1.58;0.75;;;;;;;;;;5055413;28;20394;-35
2021/12/11 12:43:10;;;;;;;1.73;1.52;;;;;;;;;;5055365;28;20056;-35
2021/12/11 12:45:40;;;;;;;5.10;1.70;;;;;;;;;;5055367;28;20030;-36
2021/12/11 12:48:12;;;;;;;1.98;1.33;;;;;;;;;;5054904;28;20047;-37
2021/12/11 12:50:38;;;;;;;2.10;1.53;;;;;;;;;;5055132;28;20028;-35
2021/12/11 12:53:04;;;;;;;2.28;1.50;;;;;;;;;;5055015;28;20303;-35
2021/12/11 12:55:30;;;;;;;3.17;1.90;;;;;;;;;;5054800;28;20475;-35
2021/12/11 12:57:56;;;;;;;5.43;1.77;;;;;;;;;;5055079;28;20022;-36
2021/12/11 13:00:27;;;;;;;2.40;1.55;;;;;;;;;;5054722;28;20068;-36
2021/12/11 13:02:54;;;;;;;6.25;1.85;;;;;;;;;;5054762;28;20116;-36
2021/12/11 13:05:20;;;;;;;3.67;1.30;;;;;;;;;;5054552;28;20463;-36
2021/12/11 13:07:46;;;;;;;1.77;1.52;;;;;;;;;;5054655;28;20028;-35
2021/12/11 13:10:18;;;;;;;4.80;1.70;;;;;;;;;;5054875;28;20048;-36
2021/12/11 13:12:45;;;;;;;1.65;1.23;;;;;;;;;;5054780;28;20386;-36
2021/12/11 13:15:26;;;;;;;1.27;1.15;;;;;;;;;;5054768;28;20025;-35
2021/12/11 13:17:53;;;;;;;1.85;0.68;;;;;;;;;;5054802;28;20032;-35
2021/12/11 13:20:26;;;;;;;5.85;2.28;;;;;;;;;;5054397;28;20024;-35
2021/12/11 13:22:52;;;;;;;2.63;1.55;;;;;;;;;;5054406;28;20049;-36
2021/12/11 13:25:20;;;;;;;5.20;1.85;;;;;;;;;;5053084;28;20509;-35
2021/12/11 13:27:50;;;;;;;2.45;1.60;;;;;;;;;;5054514;28;20045;-36
2021/12/11 13:30:19;;;;;;;3.38;1.83;;;;;;;;;;5054478;28;20424;-35
2021/12/11 13:32:47;;;;;;;2.30;1.30;;;;;;;;;;5054250;28;20029;-36
2021/12/11 13:35:15;;;;;;;3.05;2.13;;;;;;;;;;5052585;28;20137;-36
2021/12/11 13:37:42;;;;;;;5.40;2.30;;;;;;;;;;5054147;28;20033;-36
2021/12/11 13:40:10;;;;;;;3.28;1.73;;;;;;;;;;5053790;28;20463;-36
2021/12/11 13:42:40;;;;;;;2.53;1.70;;;;;;;;;;5054018;28;20032;-35
2021/12/11 13:45:09;;;;;;;2.03;1.33;;;;;;;;;;5053973;28;20037;-36
2021/12/11 13:47:35;;;;;;;1.55;1.38;;;;;;;;;;5053722;28;20037;-36
2021/12/11 13:50:03;;;;;;;5.32;1.58;;;;;;;;;;5053878;28;20024;-36
2021/12/11 13:52:29;;;;;;;1.58;1.10;;;;;;;;;;5053794;28;20029;-36
2021/12/11 13:54:55;;;;;;;1.52;1.30;;;;;;;;;;5053672;28;20090;-36
2021/12/11 13:57:25;;;;;;;2.22;1.60;;;;;;;;;;5053988;28;20071;-36
2021/12/11 13:59:54;;;;;;;4.07;1.85;;;;;;;;;;5053674;28;20041;-35
2021/12/11 14:02:22;;;;;;;2.03;1.27;;;;;;;;;;5053518;28;20037;-35
2021/12/11 14:04:48;;;;;;;3.90;2.08;;;;;;;;;;5053912;28;20043;-36
2021/12/11 14:07:18;;;;;;;1.60;1.13;;;;;;;;;;5053709;28;20044;-35
2021/12/11 14:09:49;;;;;;;2.60;1.73;;;;;;;;;;5053663;28;20422;-35
2021/12/11 14:12:15;;;;;;;3.92;2.10;;;;;;;;;;5053389;28;20025;-36
2021/12/11 14:14:41;;;;;;;6.80;1.73;;;;;;;;;;5053470;28;20082;-36
2021/12/11 14:17:08;;;;;;;4.43;2.55;;;;;;;;;;5053577;28;20167;-36
2021/12/11 14:19:34;;;;;;;3.97;1.65;;;;;;;;;;5053502;28;20099;-36
2021/12/11 14:22:01;;;;;;;3.05;1.50;;;;;;;;;;5053186;28;20037;-36
2021/12/11 14:24:30;;;;;;;3.42;1.13;;;;;;;;;;5053334;28;20459;-36
2021/12/11 14:26:56;;;;;;;8.05;1.33;;;;;;;;;;5053442;28;20044;-36
2021/12/11 14:29:22;;;;;;;3.05;1.65;;;;;;;;;;5052964;28;20029;-35
2021/12/11 14:31:49;;;;;;;3.72;2.20;;;;;;;;;;5053343;28;20028;-36
2021/12/11 14:34:15;;;;;;;3.40;1.77;;;;;;;;;;5051400;28;20045;-36
2021/12/11 14:36:41;;;;;;;2.47;1.40;;;;;;;;;;5052989;28;20028;-37
2021/12/11 14:39:11;;;;;;;5.22;2.13;;;;;;;;;;5052948;28;20028;-36
2021/12/11 14:41:39;;;;;;;4.53;1.98;;;;;;;;;;5052873;28;20116;-36
2021/12/11 14:44:06;;;;;;;1.85;0.75;;;;;;;;;;5053109;28;20021;-36
2021/12/11 14:46:32;;;;;;;2.08;1.15;;;;;;;;;;5052682;28;20052;-35
2021/12/11 14:48:58;;;;;;;4.28;1.75;;;;;;;;;;5052779;28;20021;-36
2021/12/11 14:51:25;;;;;;;1.85;1.10;;;;;;;;;;5051839;28;20098;-35
2021/12/11 14:53:51;;;;;;;7.35;1.48;;;;;;;;;;5052739;28;20024;-36
2021/12/11 14:56:18;;;;;;;2.22;1.52;;;;;;;;;;5052554;28;20033;-36
2021/12/11 14:58:45;;;;;;;2.78;1.75;;;;;;;;;;5052432;28;20029;-35
2021/12/11 15:01:23;;;;;;;3.40;1.85;;;;;;;;;;5052830;28;20029;-36
2021/12/11 15:03:49;;;;;;;2.17;1.70;;;;;;;;;;5052518;28;20147;-35
2021/12/11 15:06:15;;;;;;;4.18;1.65;;;;;;;;;;5050840;28;20067;-36
2021/12/11 15:08:44;;;;;;;2.78;2.33;;;;;;;;;;5052642;28;20052;-35